Time,TemperatureF,DewpointF,PressureIn,WindDirection,WindDirectionDegrees,WindSpeedMPH,WindSpeedGustMPH,Humidity,HourlyPrecipIn,Conditions,Clouds,dailyrainin,SoftwareType,DateUTC
2013-05-05 00:01:00,48.0,42.1,29.92,North,0,0.0,0.0,80,0.00,,,0.04,WUHU21623XXSP,2013-05-05 05:01:00,
2013-05-05 00:06:00,48.0,42.4,29.92,North,0,0.0,0.0,81,0.00,,,0.00,WUHU21623XXSP,2013-05-05 05:06:00,
2013-05-05 00:11:00,48.0,42.4,29.91,North,0,0.0,0.0,81,0.00,,,0.00,WUHU21623XXSP,2013-05-05 05:11:00,
2013-05-05 00:16:00,47.8,42.2,29.91,North,0,0.0,0.0,81,0.00,,,0.00,WUHU21623XXSP,2013-05-05 05:16:00,
2013-05-05 00:21:00,47.8,42.2,29.92,North,0,0.0,0.0,81,0.00,,,0.00,WUHU21623XXSP,2013-05-05 05:21:00,
2013-05-05 00:26:00,47.7,42.1,29.92,North,0,0.0,0.0,81,0.00,,,0.00,WUHU21623XXSP,2013-05-05 05:26:00,
2013-05-05 00:31:00,47.5,41.9,29.92,North,0,0.0,0.0,81,0.00,,,0.00,WUHU21623XXSP,2013-05-05 05:31:00,
2013-05-05 00:36:00,47.5,41.9,29.92,North,0,0.0,0.0,81,0.00,,,0.00,WUHU21623XXSP,2013-05-05 05:36:00,
2013-05-05 00:41:00,47.3,41.9,29.92,North,0,0.0,0.0,81,0.00,,,0.00,WUHU21623XXSP,2013-05-05 05:41:00,
2013-05-05 00:46:00,47.3,42.1,29.92,North,0,0.0,0.0,82,0.00,,,0.00,WUHU21623XXSP,2013-05-05 05:46:00,
2013-05-05 00:51:00,47.1,41.9,29.92,North,0,0.0,0.0,82,0.00,,,0.00,WUHU21623XXSP,2013-05-05 05:51:00,
2013-05-05 00:56:00,47.1,41.9,29.92,North,0,0.0,0.0,83,0.00,,,0.00,WUHU21623XXSP,2013-05-05 05:56:00,
2013-05-05 01:01:00,47.1,42.2,29.92,North,0,0.0,0.0,83,0.00,,,0.00,WUHU21623XXSP,2013-05-05 06:01:00,
2013-05-05 01:06:00,47.1,42.2,29.92,North,0,0.0,0.0,83,0.00,,,0.00,WUHU21623XXSP,2013-05-05 06:06:00,
2013-05-05 01:11:00,47.1,42.2,29.92,North,0,0.0,0.0,83,0.00,,,0.00,WUHU21623XXSP,2013-05-05 06:11:00,
2013-05-05 01:16:00,47.1,42.2,29.92,North,0,0.0,0.0,83,0.00,,,0.00,WUHU21623XXSP,2013-05-05 06:16:00,
2013-05-05 01:21:00,47.1,42.2,29.91,North,0,0.0,0.0,83,0.00,,,0.00,WUHU21623XXSP,2013-05-05 06:21:00,
2013-05-05 01:26:00,47.1,42.2,29.91,North,0,0.0,0.0,83,0.00,,,0.00,WUHU21623XXSP,2013-05-05 06:26:00,
2013-05-05 01:31:00,47.1,42.2,29.91,North,0,0.0,0.0,83,0.00,,,0.00,WUHU21623XXSP,2013-05-05 06:31:00,
2013-05-05 01:36:00,46.9,42.0,29.91,North,0,0.0,0.0,83,0.00,,,0.00,WUHU21623XXSP,2013-05-05 06:36:00,
2013-05-05 01:41:00,46.9,42.0,29.91,North,0,0.0,0.0,83,0.00,,,0.00,WUHU21623XXSP,2013-05-05 06:41:00,
2013-05-05 01:46:00,46.9,42.0,29.91,North,0,0.0,0.0,83,0.00,,,0.00,WUHU21623XXSP,2013-05-05 06:46:00,
2013-05-05 01:51:00,46.8,41.9,29.91,North,0,0.0,0.0,83,0.00,,,0.00,WUHU21623XXSP,2013-05-05 06:51:00,
2013-05-05 01:56:00,46.8,42.2,29.91,North,0,0.0,0.0,84,0.00,,,0.00,WUHU21623XXSP,2013-05-05 06:56:00,
2013-05-05 02:01:00,46.8,42.2,29.91,North,0,0.0,0.0,84,0.00,,,0.00,WUHU21623XXSP,2013-05-05 07:01:00,
2013-05-05 02:06:00,46.8,42.2,29.90,North,0,0.0,0.0,84,0.00,,,0.00,WUHU21623XXSP,2013-05-05 07:06:00,
2013-05-05 02:11:00,46.8,42.2,29.90,North,0,0.0,0.0,84,0.00,,,0.00,WUHU21623XXSP,2013-05-05 07:11:00,
2013-05-05 02:16:00,46.6,42.0,29.90,North,0,0.0,0.0,84,0.00,,,0.00,WUHU21623XXSP,2013-05-05 07:16:00,
2013-05-05 02:21:00,46.6,42.0,29.90,North,0,0.0,0.0,84,0.00,,,0.00,WUHU21623XXSP,2013-05-05 07:21:00,
2013-05-05 02:26:00,46.6,42.0,29.90,North,0,0.0,0.0,84,0.00,,,0.00,WUHU21623XXSP,2013-05-05 07:26:00,
2013-05-05 02:31:00,46.6,42.3,29.90,North,0,0.0,0.0,85,0.00,,,0.00,WUHU21623XXSP,2013-05-05 07:31:00,
2013-05-05 02:36:00,46.6,42.3,29.90,North,0,0.0,0.0,85,0.00,,,0.00,WUHU21623XXSP,2013-05-05 07:36:00,
2013-05-05 02:41:00,46.6,42.3,29.89,North,0,0.0,0.0,85,0.00,,,0.00,WUHU21623XXSP,2013-05-05 07:41:00,
2013-05-05 02:46:00,46.6,42.3,29.89,North,0,0.0,0.0,85,0.00,,,0.00,WUHU21623XXSP,2013-05-05 07:46:00,
2013-05-05 02:51:00,46.6,42.3,29.89,North,0,0.0,0.0,85,0.00,,,0.00,WUHU21623XXSP,2013-05-05 07:51:00,
2013-05-05 02:56:00,46.6,42.3,29.89,North,0,0.0,0.0,85,0.00,,,0.00,WUHU21623XXSP,2013-05-05 07:56:00,
2013-05-05 03:01:00,46.6,42.3,29.89,North,0,0.0,0.0,85,0.00,,,0.00,WUHU21623XXSP,2013-05-05 08:01:00,
2013-05-05 03:06:00,46.8,42.8,29.89,North,0,0.0,0.0,86,0.00,,,0.00,WUHU21623XXSP,2013-05-05 08:06:00,
2013-05-05 03:11:00,46.8,42.8,29.89,North,0,0.0,0.0,86,0.00,,,0.00,WUHU21623XXSP,2013-05-05 08:11:00,
2013-05-05 03:16:00,46.8,42.8,29.89,North,0,0.0,0.0,86,0.00,,,0.00,WUHU21623XXSP,2013-05-05 08:16:00,
2013-05-05 03:21:00,46.8,42.8,29.89,North,0,0.0,0.0,86,0.00,,,0.00,WUHU21623XXSP,2013-05-05 08:21:00,
2013-05-05 03:26:00,46.8,42.8,29.89,North,0,0.0,0.0,86,0.00,,,0.00,WUHU21623XXSP,2013-05-05 08:26:00,
2013-05-05 03:31:00,46.6,42.6,29.89,North,0,0.0,0.0,86,0.00,,,0.00,WUHU21623XXSP,2013-05-05 08:31:00,
2013-05-05 03:36:00,46.6,42.6,29.88,North,0,0.0,0.0,86,0.00,,,0.00,WUHU21623XXSP,2013-05-05 08:36:00,
2013-05-05 03:41:00,46.6,42.6,29.88,North,0,0.0,0.0,86,0.00,,,0.00,WUHU21623XXSP,2013-05-05 08:41:00,
2013-05-05 03:46:00,46.6,42.6,29.88,North,0,0.0,0.0,86,0.00,,,0.00,WUHU21623XXSP,2013-05-05 08:46:00,
2013-05-05 03:51:00,46.6,42.6,29.87,North,0,0.0,0.0,86,0.00,,,0.00,WUHU21623XXSP,2013-05-05 08:51:00,
2013-05-05 03:56:00,46.6,42.6,29.87,North,0,0.0,0.0,86,0.00,,,0.00,WUHU21623XXSP,2013-05-05 08:56:00,
2013-05-05 04:01:00,46.6,42.6,29.87,North,0,0.0,0.0,86,0.00,,,0.00,WUHU21623XXSP,2013-05-05 09:01:00,
2013-05-05 04:06:00,46.6,42.9,29.87,North,0,0.0,0.0,87,0.00,,,0.00,WUHU21623XXSP,2013-05-05 09:06:00,
2013-05-05 04:11:00,46.8,43.1,29.87,North,0,0.0,0.0,87,0.00,,,0.00,WUHU21623XXSP,2013-05-05 09:11:00,
2013-05-05 04:16:00,46.9,43.3,29.87,North,0,0.0,0.0,87,0.00,,,0.00,WUHU21623XXSP,2013-05-05 09:16:00,
2013-05-05 04:21:00,46.9,43.3,29.87,North,0,0.0,0.0,87,0.00,,,0.00,WUHU21623XXSP,2013-05-05 09:21:00,
2013-05-05 04:26:00,47.1,43.5,29.87,North,0,0.0,0.0,87,0.00,,,0.00,WUHU21623XXSP,2013-05-05 09:26:00,
2013-05-05 04:31:00,47.1,43.5,29.87,North,0,0.0,0.0,87,0.00,,,0.00,WUHU21623XXSP,2013-05-05 09:31:00,
2013-05-05 04:36:00,47.5,44.1,29.87,North,0,0.0,0.0,88,0.00,,,0.00,WUHU21623XXSP,2013-05-05 09:36:00,
2013-05-05 04:41:00,47.7,44.3,29.87,North,0,0.0,0.0,88,0.00,,,0.00,WUHU21623XXSP,2013-05-05 09:41:00,
2013-05-05 04:46:00,47.8,44.5,29.87,North,0,0.0,0.0,88,0.00,,,0.00,WUHU21623XXSP,2013-05-05 09:46:00,
2013-05-05 04:51:00,48.0,44.7,29.87,North,0,0.0,0.0,88,0.00,,,0.00,WUHU21623XXSP,2013-05-05 09:51:00,
2013-05-05 04:56:00,48.4,45.0,29.87,North,0,0.0,0.0,88,0.00,,,0.00,WUHU21623XXSP,2013-05-05 09:56:00,
2013-05-05 05:01:00,48.6,45.0,29.87,North,0,0.0,0.0,88,0.00,,,0.00,WUHU21623XXSP,2013-05-05 10:01:00,
2013-05-05 05:06:00,48.7,45.3,29.86,North,0,0.0,0.0,88,0.00,,,0.00,WUHU21623XXSP,2013-05-05 10:06:00,
2013-05-05 05:11:00,48.7,45.3,29.87,North,0,0.0,0.0,88,0.00,,,0.00,WUHU21623XXSP,2013-05-05 10:11:00,
2013-05-05 05:16:00,48.7,45.3,29.87,North,0,0.0,0.0,88,0.00,,,0.00,WUHU21623XXSP,2013-05-05 10:16:00,
2013-05-05 05:21:00,48.9,45.3,29.87,North,0,0.0,0.0,88,0.00,,,0.00,WUHU21623XXSP,2013-05-05 10:21:00,
2013-05-05 05:26:00,49.1,45.8,29.86,North,0,0.0,0.0,89,0.00,,,0.00,WUHU21623XXSP,2013-05-05 10:26:00,
2013-05-05 05:31:00,49.3,46.1,29.86,North,0,0.0,0.0,89,0.00,,,0.00,WUHU21623XXSP,2013-05-05 10:31:00,
2013-05-05 05:36:00,49.6,46.5,29.86,North,0,0.0,0.0,89,0.00,,,0.00,WUHU21623XXSP,2013-05-05 10:36:00,
2013-05-05 05:41:00,50.2,46.6,29.86,North,0,0.0,0.0,89,0.00,,,0.00,WUHU21623XXSP,2013-05-05 10:41:00,
2013-05-05 05:46:00,50.5,47.7,29.87,North,0,0.0,0.0,90,0.00,,,0.00,WUHU21623XXSP,2013-05-05 10:46:00,
2013-05-05 05:51:00,50.7,47.7,29.87,North,0,0.0,0.0,90,0.00,,,0.00,WUHU21623XXSP,2013-05-05 10:51:00,
2013-05-05 05:56:00,51.3,48.2,29.87,North,0,0.0,0.0,90,0.00,,,0.00,WUHU21623XXSP,2013-05-05 10:56:00,
2013-05-05 06:00:00,51.6,48.7,29.87,North,0,0.0,0.0,90,0.00,,,0.00,WUHU21623XXSP,2013-05-05 11:00:00,
2013-05-05 06:05:00,52.0,49.1,29.87,North,0,0.0,0.0,90,0.00,,,0.00,WUHU21623XXSP,2013-05-05 11:05:00,
2013-05-05 06:10:00,52.3,49.5,29.87,North,0,0.0,0.0,90,0.00,,,0.00,WUHU21623XXSP,2013-05-05 11:10:00,
2013-05-05 06:15:00,52.5,49.6,29.87,North,0,0.0,0.0,90,0.00,,,0.00,WUHU21623XXSP,2013-05-05 11:15:00,
2013-05-05 06:20:00,52.7,49.8,29.87,North,0,0.0,0.0,90,0.00,,,0.00,WUHU21623XXSP,2013-05-05 11:20:00,
2013-05-05 06:25:00,53.2,50.4,29.87,North,0,0.0,0.0,90,0.00,,,0.00,WUHU21623XXSP,2013-05-05 11:25:00,
2013-05-05 06:30:00,53.2,50.6,29.87,North,0,0.0,0.0,91,0.00,,,0.00,WUHU21623XXSP,2013-05-05 11:30:00,
2013-05-05 06:35:00,53.4,50.8,29.87,North,0,0.0,0.0,91,0.00,,,0.00,WUHU21623XXSP,2013-05-05 11:35:00,
2013-05-05 06:40:00,54.1,51.5,29.87,North,0,0.0,0.0,91,0.00,,,0.00,WUHU21623XXSP,2013-05-05 11:40:00,
2013-05-05 06:45:00,54.5,51.9,29.87,North,0,0.0,0.0,91,0.00,,,0.00,WUHU21623XXSP,2013-05-05 11:45:00,
2013-05-05 06:50:00,55.0,52.4,29.88,North,0,0.0,0.0,91,0.00,,,0.00,WUHU21623XXSP,2013-05-05 11:50:00,
2013-05-05 06:55:00,55.6,53.0,29.88,North,0,0.0,0.0,91,0.00,,,0.00,WUHU21623XXSP,2013-05-05 11:55:00,
2013-05-05 07:00:00,55.9,53.2,29.88,North,0,0.0,0.0,91,0.00,,,0.00,WUHU21623XXSP,2013-05-05 12:00:00,
2013-05-05 07:05:00,56.3,53.7,29.88,North,0,0.0,0.0,91,0.00,,,0.00,WUHU21623XXSP,2013-05-05 12:05:00,
2013-05-05 07:10:00,56.8,54.0,29.88,North,0,0.0,0.0,90,0.00,,,0.00,WUHU21623XXSP,2013-05-05 12:10:00,
2013-05-05 07:15:00,57.0,54.1,29.88,North,0,0.0,0.0,90,0.00,,,0.00,WUHU21623XXSP,2013-05-05 12:15:00,
2013-05-05 07:20:00,57.6,54.7,29.88,North,0,0.0,0.0,90,0.00,,,0.00,WUHU21623XXSP,2013-05-05 12:20:00,
2013-05-05 07:25:00,58.3,55.1,29.89,North,0,0.0,0.0,89,0.00,,,0.00,WUHU21623XXSP,2013-05-05 12:25:00,
2013-05-05 07:30:00,58.8,55.6,29.89,North,0,0.0,0.0,89,0.00,,,0.00,WUHU21623XXSP,2013-05-05 12:30:00,
2013-05-05 07:35:00,59.4,56.2,29.89,North,0,0.0,0.0,89,0.00,,,0.00,WUHU21623XXSP,2013-05-05 12:35:00,
2013-05-05 07:40:00,59.7,56.2,29.89,North,0,0.0,0.0,88,0.00,,,0.00,WUHU21623XXSP,2013-05-05 12:40:00,
2013-05-05 07:45:00,60.1,56.2,29.89,North,0,0.0,0.0,87,0.00,,,0.00,WUHU21623XXSP,2013-05-05 12:45:00,
2013-05-05 07:50:00,60.4,56.6,29.89,North,0,0.0,0.0,87,0.00,,,0.00,WUHU21623XXSP,2013-05-05 12:50:00,
2013-05-05 07:55:00,60.6,56.4,29.89,North,0,0.0,0.0,86,0.00,,,0.00,WUHU21623XXSP,2013-05-05 12:55:00,
2013-05-05 08:00:00,60.6,56.4,29.89,North,0,0.0,0.0,86,0.00,,,0.00,WUHU21623XXSP,2013-05-05 13:00:00,
2013-05-05 08:05:00,60.6,56.1,29.89,North,0,0.0,0.0,85,0.00,,,0.00,WUHU21623XXSP,2013-05-05 13:05:00,
2013-05-05 08:10:00,61.0,56.5,29.89,North,0,0.0,0.0,85,0.00,,,0.00,WUHU21623XXSP,2013-05-05 13:10:00,
2013-05-05 08:15:00,61.0,56.5,29.88,North,0,0.0,0.0,85,0.00,,,0.00,WUHU21623XXSP,2013-05-05 13:15:00,
2013-05-05 08:20:00,61.2,56.6,29.88,North,0,0.0,0.0,84,0.00,,,0.00,WUHU21623XXSP,2013-05-05 13:20:00,
2013-05-05 08:25:00,61.5,56.3,29.88,North,0,0.0,0.0,83,0.00,,,0.00,WUHU21623XXSP,2013-05-05 13:25:00,
2013-05-05 08:30:00,61.5,55.7,29.88,North,0,0.0,0.0,81,0.00,,,0.00,WUHU21623XXSP,2013-05-05 13:30:00,
2013-05-05 08:35:00,61.5,55.0,29.88,North,0,0.0,0.0,79,0.00,,,0.00,WUHU21623XXSP,2013-05-05 13:35:00,
2013-05-05 08:40:00,61.9,55.3,29.88,North,0,0.0,0.0,79,0.00,,,0.00,WUHU21623XXSP,2013-05-05 13:40:00,
2013-05-05 08:45:00,62.1,54.4,29.88,North,0,0.0,0.0,76,0.00,,,0.00,WUHU21623XXSP,2013-05-05 13:45:00,
2013-05-05 08:50:00,62.2,53.8,29.89,North,0,0.0,0.0,74,0.00,,,0.00,WUHU21623XXSP,2013-05-05 13:50:00,
2013-05-05 08:55:00,62.2,51.5,29.89,North,0,0.0,0.0,68,0.00,,,0.00,WUHU21623XXSP,2013-05-05 13:55:00,
2013-05-05 09:00:00,62.4,50.9,29.88,North,0,0.0,0.0,66,0.00,,,0.00,WUHU21623XXSP,2013-05-05 14:00:00,
2013-05-05 09:05:00,62.8,51.6,29.89,North,0,0.0,0.0,67,0.00,,,0.00,WUHU21623XXSP,2013-05-05 14:05:00,
2013-05-05 09:10:00,63.0,50.4,29.89,North,0,0.0,0.0,63,0.00,,,0.00,WUHU21623XXSP,2013-05-05 14:10:00,
2013-05-05 09:15:00,63.1,49.5,29.89,North,0,0.0,0.0,61,0.00,,,0.00,WUHU21623XXSP,2013-05-05 14:15:00,
2013-05-05 09:20:00,63.1,49.0,29.89,North,0,0.0,0.0,60,0.00,,,0.00,WUHU21623XXSP,2013-05-05 14:20:00,
2013-05-05 09:25:00,63.5,49.8,29.89,North,0,0.0,0.0,61,0.00,,,0.00,WUHU21623XXSP,2013-05-05 14:25:00,
2013-05-05 09:30:00,63.5,49.4,29.89,North,0,0.0,0.0,60,0.00,,,0.00,WUHU21623XXSP,2013-05-05 14:30:00,
2013-05-05 09:35:00,63.7,49.5,29.88,North,0,0.0,0.0,60,0.00,,,0.00,WUHU21623XXSP,2013-05-05 14:35:00,
2013-05-05 09:40:00,64.0,49.4,29.88,North,0,0.0,0.0,59,0.00,,,0.00,WUHU21623XXSP,2013-05-05 14:40:00,
2013-05-05 09:45:00,64.0,48.9,29.88,North,0,0.0,0.0,58,0.00,,,0.00,WUHU21623XXSP,2013-05-05 14:45:00,
2013-05-05 09:50:00,64.2,49.0,29.88,North,0,0.0,0.0,58,0.00,,,0.00,WUHU21623XXSP,2013-05-05 14:50:00,
2013-05-05 09:55:00,64.6,48.4,29.88,North,0,0.0,0.0,56,0.00,,,0.00,WUHU21623XXSP,2013-05-05 14:55:00,
2013-05-05 10:00:00,64.9,48.3,29.88,North,0,0.0,0.0,55,0.00,,,0.00,WUHU21623XXSP,2013-05-05 15:00:00,
2013-05-05 10:05:00,65.1,48.5,29.88,North,0,0.0,0.0,55,0.00,,,0.00,WUHU21623XXSP,2013-05-05 15:05:00,
2013-05-05 10:10:00,65.5,47.9,29.88,North,0,0.0,0.0,53,0.00,,,0.00,WUHU21623XXSP,2013-05-05 15:10:00,
2013-05-05 10:15:00,65.7,48.5,29.88,North,0,0.0,0.0,54,0.00,,,0.00,WUHU21623XXSP,2013-05-05 15:15:00,
2013-05-05 10:20:00,65.8,47.2,29.89,North,0,0.0,0.0,51,0.00,,,0.00,WUHU21623XXSP,2013-05-05 15:20:00,
2013-05-05 10:25:00,66.0,47.9,29.88,North,0,0.0,0.0,52,0.00,,,0.00,WUHU21623XXSP,2013-05-05 15:25:00,
2013-05-05 10:30:00,66.0,48.4,29.89,North,0,0.0,0.0,53,0.00,,,0.00,WUHU21623XXSP,2013-05-05 15:30:00,
2013-05-05 10:35:00,66.2,49.1,29.89,North,0,0.0,0.0,54,0.00,,,0.00,WUHU21623XXSP,2013-05-05 15:35:00,
2013-05-05 10:40:00,66.4,49.2,29.88,North,0,0.0,0.0,54,0.00,,,0.00,WUHU21623XXSP,2013-05-05 15:40:00,
2013-05-05 10:45:00,66.6,48.9,29.89,North,0,0.0,0.0,53,0.00,,,0.00,WUHU21623XXSP,2013-05-05 15:45:00,
2013-05-05 10:50:00,66.7,48.4,29.89,North,0,0.0,0.0,52,0.00,,,0.00,WUHU21623XXSP,2013-05-05 15:50:00,
2013-05-05 10:55:00,66.6,48.9,29.89,North,0,0.0,0.0,53,0.00,,,0.00,WUHU21623XXSP,2013-05-05 15:55:00,
2013-05-05 11:00:00,66.6,49.2,29.89,North,0,0.0,0.0,54,0.00,,,0.00,WUHU21623XXSP,2013-05-05 16:00:00,
2013-05-05 11:05:00,66.4,48.7,29.89,North,0,0.0,0.0,53,0.00,,,0.00,WUHU21623XXSP,2013-05-05 16:05:00,
2013-05-05 11:10:00,66.6,49.4,29.89,North,0,0.0,0.0,54,0.00,,,0.00,WUHU21623XXSP,2013-05-05 16:10:00,
2013-05-05 11:15:00,66.4,49.2,29.89,North,0,0.0,0.0,54,0.00,,,0.00,WUHU21623XXSP,2013-05-05 16:15:00,
2013-05-05 11:20:00,66.4,49.2,29.90,North,0,0.0,0.0,55,0.00,,,0.00,WUHU21623XXSP,2013-05-05 16:20:00,
2013-05-05 11:25:00,66.7,49.1,29.90,North,0,0.0,0.0,53,0.00,,,0.00,WUHU21623XXSP,2013-05-05 16:25:00,
2013-05-05 11:30:00,66.9,49.2,29.90,North,0,0.0,0.0,54,0.00,,,0.00,WUHU21623XXSP,2013-05-05 16:30:00,
2013-05-05 11:35:00,67.3,50.5,29.90,North,0,0.0,0.0,55,0.00,,,0.00,WUHU21623XXSP,2013-05-05 16:35:00,
2013-05-05 11:40:00,67.6,50.8,29.90,North,0,0.0,0.0,55,0.00,,,0.00,WUHU21623XXSP,2013-05-05 16:40:00,
2013-05-05 11:45:00,67.6,50.8,29.90,North,0,0.0,0.0,54,0.00,,,0.00,WUHU21623XXSP,2013-05-05 16:45:00,
2013-05-05 11:50:00,68.2,50.8,29.89,North,0,0.0,0.0,54,0.00,,,0.00,WUHU21623XXSP,2013-05-05 16:50:00,
2013-05-05 11:55:00,68.4,50.0,29.90,North,0,0.0,0.0,52,0.00,,,0.00,WUHU21623XXSP,2013-05-05 16:55:00,
2013-05-05 12:00:00,68.4,50.5,29.90,North,0,0.0,0.0,53,0.00,,,0.00,WUHU21623XXSP,2013-05-05 17:00:00,
2013-05-05 12:05:00,68.2,50.2,29.90,North,0,0.0,0.0,52,0.00,,,0.00,WUHU21623XXSP,2013-05-05 17:05:00,
2013-05-05 12:10:00,68.2,50.4,29.90,North,0,0.0,0.0,53,0.00,,,0.00,WUHU21623XXSP,2013-05-05 17:10:00,
2013-05-05 12:15:00,68.2,49.9,29.89,North,0,0.0,0.0,52,0.00,,,0.00,WUHU21623XXSP,2013-05-05 17:15:00,
2013-05-05 12:20:00,68.4,49.9,29.90,North,0,0.0,0.0,52,0.00,,,0.00,WUHU21623XXSP,2013-05-05 17:20:00,
2013-05-05 12:25:00,68.9,50.0,29.89,North,0,0.0,0.0,51,0.00,,,0.00,WUHU21623XXSP,2013-05-05 17:25:00,
2013-05-05 12:30:00,69.3,49.9,29.89,North,0,0.0,0.0,50,0.00,,,0.00,WUHU21623XXSP,2013-05-05 17:30:00,
2013-05-05 12:35:00,69.1,49.3,29.89,North,0,0.0,0.0,49,0.00,,,0.00,WUHU21623XXSP,2013-05-05 17:35:00,
2013-05-05 12:40:00,68.9,48.4,29.90,North,0,0.0,0.0,48,0.00,,,0.00,WUHU21623XXSP,2013-05-05 17:40:00,
2013-05-05 12:45:00,68.9,47.8,29.89,North,0,0.0,0.0,47,0.00,,,0.00,WUHU21623XXSP,2013-05-05 17:45:00,
2013-05-05 12:50:00,68.7,48.2,29.90,North,0,0.0,0.0,48,0.00,,,0.00,WUHU21623XXSP,2013-05-05 17:50:00,
2013-05-05 12:55:00,68.9,47.8,29.90,North,0,0.0,0.0,46,0.00,,,0.00,WUHU21623XXSP,2013-05-05 17:55:00,
2013-05-05 13:00:00,69.1,46.6,29.90,North,0,0.0,0.0,46,0.00,,,0.00,WUHU21623XXSP,2013-05-05 18:00:00,
2013-05-05 13:05:00,69.1,47.3,29.90,North,0,0.0,0.0,46,0.00,,,0.00,WUHU21623XXSP,2013-05-05 18:05:00,
2013-05-05 13:10:00,69.4,47.1,29.90,North,0,0.0,0.0,45,0.00,,,0.00,WUHU21623XXSP,2013-05-05 18:10:00,
2013-05-05 13:15:00,69.3,47.1,29.90,North,0,0.0,0.0,45,0.00,,,0.00,WUHU21623XXSP,2013-05-05 18:15:00,
2013-05-05 13:20:00,69.4,46.5,29.90,North,0,0.0,0.0,45,0.00,,,0.00,WUHU21623XXSP,2013-05-05 18:20:00,
2013-05-05 13:25:00,69.6,47.2,29.90,North,0,0.0,0.0,45,0.00,,,0.00,WUHU21623XXSP,2013-05-05 18:25:00,
2013-05-05 13:30:00,69.4,46.5,29.90,North,0,0.0,0.0,44,0.00,,,0.00,WUHU21623XXSP,2013-05-05 18:30:00,
2013-05-05 13:35:00,69.1,46.1,29.90,North,0,0.0,0.0,44,0.00,,,0.00,WUHU21623XXSP,2013-05-05 18:35:00,
2013-05-05 13:40:00,69.1,46.1,29.90,North,0,0.0,0.0,44,0.00,,,0.00,WUHU21623XXSP,2013-05-05 18:40:00,
2013-05-05 13:45:00,68.9,45.4,29.90,North,0,0.0,0.0,43,0.00,,,0.00,WUHU21623XXSP,2013-05-05 18:45:00,
2013-05-05 13:50:00,68.5,45.1,29.90,North,0,0.0,0.0,43,0.00,,,0.00,WUHU21623XXSP,2013-05-05 18:50:00,
2013-05-05 13:55:00,68.4,44.9,29.90,North,0,0.0,0.0,43,0.00,,,0.00,WUHU21623XXSP,2013-05-05 18:55:00,
2013-05-05 14:00:00,68.4,45.1,29.90,North,0,0.0,0.0,43,0.00,,,0.00,WUHU21623XXSP,2013-05-05 19:00:00,
2013-05-05 14:05:00,68.2,45.3,29.90,North,0,0.0,0.0,44,0.00,,,0.00,WUHU21623XXSP,2013-05-05 19:05:00,
2013-05-05 14:10:00,68.2,44.7,29.90,North,0,0.0,0.0,43,0.00,,,0.00,WUHU21623XXSP,2013-05-05 19:10:00,
2013-05-05 14:15:00,67.8,44.4,29.90,North,0,0.0,0.0,43,0.00,,,0.00,WUHU21623XXSP,2013-05-05 19:15:00,
2013-05-05 14:20:00,67.8,45.0,29.90,North,0,0.0,0.0,44,0.00,,,0.00,WUHU21623XXSP,2013-05-05 19:20:00,
2013-05-05 14:25:00,68.4,45.5,29.89,North,0,0.0,0.0,44,0.00,,,0.00,WUHU21623XXSP,2013-05-05 19:25:00,
2013-05-05 14:30:00,68.4,44.9,29.90,North,0,0.0,0.0,43,0.00,,,0.00,WUHU21623XXSP,2013-05-05 19:30:00,
2013-05-05 14:35:00,68.4,44.9,29.90,North,0,0.0,0.0,43,0.00,,,0.00,WUHU21623XXSP,2013-05-05 19:35:00,
2013-05-05 14:40:00,68.7,45.2,29.90,North,0,0.0,0.0,43,0.00,,,0.00,WUHU21623XXSP,2013-05-05 19:40:00,
2013-05-05 14:45:00,68.5,45.1,29.89,North,0,0.0,0.0,43,0.00,,,0.00,WUHU21623XXSP,2013-05-05 19:45:00,
2013-05-05 14:50:00,68.5,45.1,29.90,North,0,0.0,0.0,43,0.00,,,0.00,WUHU21623XXSP,2013-05-05 19:50:00,
2013-05-05 14:55:00,68.7,45.2,29.90,North,0,0.0,0.0,43,0.00,,,0.00,WUHU21623XXSP,2013-05-05 19:55:00,
2013-05-05 15:00:00,68.7,45.2,29.90,North,0,0.0,0.0,43,0.00,,,0.00,WUHU21623XXSP,2013-05-05 20:00:00,
2013-05-05 15:05:00,68.2,44.1,29.90,North,0,0.0,0.0,42,0.00,,,0.00,WUHU21623XXSP,2013-05-05 20:05:00,
2013-05-05 15:10:00,67.8,44.4,29.90,North,0,0.0,0.0,43,0.00,,,0.00,WUHU21623XXSP,2013-05-05 20:10:00,
2013-05-05 15:15:00,67.8,44.4,29.90,North,0,0.0,0.0,43,0.00,,,0.00,WUHU21623XXSP,2013-05-05 20:15:00,
2013-05-05 15:20:00,67.8,44.4,29.89,North,0,0.0,0.0,43,0.00,,,0.00,WUHU21623XXSP,2013-05-05 20:20:00,
2013-05-05 15:25:00,67.8,44.4,29.89,North,0,0.0,0.0,43,0.00,,,0.00,WUHU21623XXSP,2013-05-05 20:25:00,
2013-05-05 15:30:00,67.6,44.9,29.90,North,0,0.0,0.0,44,0.00,,,0.00,WUHU21623XXSP,2013-05-05 20:30:00,
2013-05-05 15:35:00,67.8,44.4,29.89,North,0,0.0,0.0,43,0.00,,,0.00,WUHU21623XXSP,2013-05-05 20:35:00,
2013-05-05 15:40:00,67.8,44.4,29.90,North,0,0.0,0.0,43,0.00,,,0.00,WUHU21623XXSP,2013-05-05 20:40:00,
2013-05-05 15:45:00,67.8,44.4,29.90,North,0,0.0,0.0,42,0.00,,,0.00,WUHU21623XXSP,2013-05-05 20:45:00,
2013-05-05 15:50:00,67.3,43.9,29.90,North,0,0.0,0.0,43,0.00,,,0.00,WUHU21623XXSP,2013-05-05 20:50:00,
2013-05-05 15:55:00,66.4,43.7,29.89,North,0,0.0,0.0,44,0.00,,,0.00,WUHU21623XXSP,2013-05-05 20:55:00,
2013-05-05 16:00:00,66.4,43.7,29.90,North,0,0.0,0.0,44,0.00,,,0.00,WUHU21623XXSP,2013-05-05 21:00:00,
2013-05-05 16:05:00,66.4,43.7,29.90,North,0,0.0,0.0,44,0.00,,,0.00,WUHU21623XXSP,2013-05-05 21:05:00,
2013-05-05 16:10:00,66.7,43.4,29.90,North,0,0.0,0.0,43,0.00,,,0.00,WUHU21623XXSP,2013-05-05 21:10:00,
2013-05-05 16:15:00,66.4,43.1,29.90,North,0,0.0,0.0,43,0.00,,,0.00,WUHU21623XXSP,2013-05-05 21:15:00,
2013-05-05 16:20:00,66.4,43.1,29.90,North,0,0.0,0.0,43,0.00,,,0.00,WUHU21623XXSP,2013-05-05 21:20:00,
2013-05-05 16:25:00,66.6,42.7,29.90,North,0,0.0,0.0,42,0.00,,,0.00,WUHU21623XXSP,2013-05-05 21:25:00,
2013-05-05 16:30:00,66.7,42.9,29.90,North,0,0.0,0.0,42,0.00,,,0.00,WUHU21623XXSP,2013-05-05 21:30:00,
2013-05-05 16:35:00,66.7,42.9,29.91,North,0,0.0,0.0,42,0.00,,,0.00,WUHU21623XXSP,2013-05-05 21:35:00,
2013-05-05 16:40:00,66.4,42.5,29.91,North,0,0.0,0.0,42,0.00,,,0.00,WUHU21623XXSP,2013-05-05 21:40:00,
2013-05-05 16:45:00,66.0,42.8,29.91,North,0,0.0,0.0,43,0.00,,,0.00,WUHU21623XXSP,2013-05-05 21:45:00,
2013-05-05 16:50:00,66.0,42.8,29.91,North,0,0.0,0.0,43,0.00,,,0.00,WUHU21623XXSP,2013-05-05 21:50:00,
2013-05-05 16:55:00,66.4,43.1,29.91,North,0,0.0,0.0,43,0.00,,,0.00,WUHU21623XXSP,2013-05-05 21:55:00,
2013-05-05 17:00:00,66.4,43.1,29.91,North,0,0.0,0.0,43,0.00,,,0.00,WUHU21623XXSP,2013-05-05 22:00:00,
2013-05-05 17:05:00,66.4,43.1,29.91,North,0,0.0,0.0,43,0.00,,,0.00,WUHU21623XXSP,2013-05-05 22:05:00,
2013-05-05 17:10:00,66.6,43.7,29.91,North,0,0.0,0.0,43,0.00,,,0.00,WUHU21623XXSP,2013-05-05 22:10:00,
2013-05-05 17:15:00,66.6,43.9,29.91,North,0,0.0,0.0,44,0.00,,,0.00,WUHU21623XXSP,2013-05-05 22:15:00,
2013-05-05 17:20:00,66.7,43.4,29.91,North,0,0.0,0.0,43,0.00,,,0.00,WUHU21623XXSP,2013-05-05 22:20:00,
2013-05-05 17:25:00,66.4,43.1,29.91,North,0,0.0,0.0,43,0.00,,,0.00,WUHU21623XXSP,2013-05-05 22:25:00,
2013-05-05 17:30:00,66.2,43.1,29.92,North,0,0.0,0.0,44,0.00,,,0.00,WUHU21623XXSP,2013-05-05 22:30:00,
2013-05-05 17:35:00,66.0,42.8,29.92,North,0,0.0,0.0,43,0.00,,,0.00,WUHU21623XXSP,2013-05-05 22:35:00,
2013-05-05 17:40:00,65.5,42.3,29.92,North,0,0.0,0.0,43,0.00,,,0.00,WUHU21623XXSP,2013-05-05 22:40:00,
2013-05-05 17:45:00,65.1,43.1,29.92,North,0,0.0,0.0,45,0.00,,,0.00,WUHU21623XXSP,2013-05-05 22:45:00,
2013-05-05 17:50:00,65.1,43.1,29.92,North,0,0.0,0.0,45,0.00,,,0.00,WUHU21623XXSP,2013-05-05 22:50:00,
2013-05-05 17:55:00,64.9,42.4,29.92,North,0,0.0,0.0,44,0.00,,,0.00,WUHU21623XXSP,2013-05-05 22:55:00,
2013-05-05 18:00:00,64.8,43.4,29.92,North,0,0.0,0.0,46,0.00,,,0.00,WUHU21623XXSP,2013-05-05 23:00:00,
2013-05-05 18:05:00,64.6,43.2,29.92,North,0,0.0,0.0,46,0.00,,,0.00,WUHU21623XXSP,2013-05-05 23:05:00,
2013-05-05 18:10:00,64.2,43.0,29.93,North,0,0.0,0.0,46,0.00,,,0.00,WUHU21623XXSP,2013-05-05 23:10:00,
2013-05-05 18:15:00,64.0,42.7,29.93,North,0,0.0,0.0,46,0.00,,,0.00,WUHU21623XXSP,2013-05-05 23:15:00,
2013-05-05 18:20:00,63.7,43.1,29.93,North,0,0.0,0.0,47,0.00,,,0.00,WUHU21623XXSP,2013-05-05 23:20:00,
2013-05-05 18:25:00,63.1,42.5,29.93,North,0,0.0,0.0,47,0.00,,,0.00,WUHU21623XXSP,2013-05-05 23:25:00,
2013-05-05 18:30:00,62.8,42.7,29.94,North,0,0.0,0.0,48,0.00,,,0.00,WUHU21623XXSP,2013-05-05 23:30:00,
2013-05-05 18:35:00,62.2,41.6,29.94,North,0,0.0,0.0,47,0.00,,,0.00,WUHU21623XXSP,2013-05-05 23:35:00,
2013-05-05 18:40:00,61.5,41.6,29.94,North,0,0.0,0.0,48,0.00,,,0.00,WUHU21623XXSP,2013-05-05 23:40:00,
2013-05-05 18:45:00,61.2,42.0,29.94,North,0,0.0,0.0,49,0.00,,,0.00,WUHU21623XXSP,2013-05-05 23:45:00,
2013-05-05 18:50:00,61.0,42.2,29.94,North,0,0.0,0.0,50,0.00,,,0.00,WUHU21623XXSP,2013-05-05 23:50:00,
2013-05-05 18:55:00,60.4,41.8,29.94,North,0,0.0,0.0,50,0.00,,,0.00,WUHU21623XXSP,2013-05-05 23:55:00,
2013-05-05 19:00:00,60.4,42.2,29.94,North,0,0.0,0.0,51,0.00,,,0.00,WUHU21623XXSP,2013-05-06 00:00:00,
2013-05-05 19:05:00,60.1,42.4,29.95,North,0,0.0,0.0,52,0.00,,,0.00,WUHU21623XXSP,2013-05-06 00:05:00,
2013-05-05 19:10:00,59.9,42.2,29.95,North,0,0.0,0.0,52,0.00,,,0.00,WUHU21623XXSP,2013-05-06 00:10:00,
2013-05-05 19:15:00,59.5,42.4,29.95,North,0,0.0,0.0,53,0.00,,,0.00,WUHU21623XXSP,2013-05-06 00:15:00,
2013-05-05 19:20:00,59.2,42.0,29.95,North,0,0.0,0.0,53,0.00,,,0.00,WUHU21623XXSP,2013-05-06 00:20:00,
2013-05-05 19:25:00,58.8,42.2,29.95,North,0,0.0,0.0,54,0.00,,,0.00,WUHU21623XXSP,2013-05-06 00:25:00,
2013-05-05 19:30:00,58.5,42.3,29.95,North,0,0.0,0.0,55,0.00,,,0.00,WUHU21623XXSP,2013-05-06 00:30:00,
2013-05-05 19:35:00,58.3,42.2,29.95,North,0,0.0,0.0,55,0.00,,,0.00,WUHU21623XXSP,2013-05-06 00:35:00,
2013-05-05 19:40:00,57.9,42.3,29.95,North,0,0.0,0.0,56,0.00,,,0.00,WUHU21623XXSP,2013-05-06 00:40:00,
2013-05-05 19:45:00,57.7,42.1,29.95,North,0,0.0,0.0,56,0.00,,,0.00,WUHU21623XXSP,2013-05-06 00:45:00,
2013-05-05 19:50:00,57.4,42.3,29.96,North,0,0.0,0.0,57,0.00,,,0.00,WUHU21623XXSP,2013-05-06 00:50:00,
2013-05-05 19:55:00,57.0,42.4,29.96,North,0,0.0,0.0,58,0.00,,,0.00,WUHU21623XXSP,2013-05-06 00:55:00,
2013-05-05 20:00:00,57.0,42.4,29.96,North,0,0.0,0.0,58,0.00,,,0.00,WUHU21623XXSP,2013-05-06 01:00:00,
2013-05-05 20:05:00,56.8,42.7,29.96,North,0,0.0,0.0,59,0.00,,,0.00,WUHU21623XXSP,2013-05-06 01:05:00,
2013-05-05 20:10:00,56.5,42.3,29.97,North,0,0.0,0.0,59,0.00,,,0.00,WUHU21623XXSP,2013-05-06 01:10:00,
2013-05-05 20:15:00,56.1,42.4,29.97,North,0,0.0,0.0,60,0.00,,,0.00,WUHU21623XXSP,2013-05-06 01:15:00,
2013-05-05 20:20:00,56.1,42.4,29.97,North,0,0.0,0.0,60,0.00,,,0.00,WUHU21623XXSP,2013-05-06 01:20:00,
2013-05-05 20:25:00,55.9,42.7,29.97,North,0,0.0,0.0,61,0.00,,,0.00,WUHU21623XXSP,2013-05-06 01:25:00,
2013-05-05 20:30:00,55.8,42.5,29.97,North,0,0.0,0.0,61,0.00,,,0.00,WUHU21623XXSP,2013-05-06 01:30:00,
2013-05-05 20:35:00,55.6,42.3,29.98,North,0,0.0,0.0,61,0.00,,,0.00,WUHU21623XXSP,2013-05-06 01:35:00,
2013-05-05 20:40:00,55.2,42.0,29.98,North,0,0.0,0.0,61,0.00,,,0.00,WUHU21623XXSP,2013-05-06 01:40:00,
2013-05-05 20:45:00,55.2,42.0,29.98,North,0,0.0,0.0,61,0.00,,,0.00,WUHU21623XXSP,2013-05-06 01:45:00,
2013-05-05 20:50:00,54.9,42.0,29.98,North,0,0.0,0.0,62,0.00,,,0.00,WUHU21623XXSP,2013-05-06 01:50:00,
2013-05-05 20:55:00,54.5,42.1,29.98,North,0,0.0,0.0,63,0.00,,,0.00,WUHU21623XXSP,2013-05-06 01:55:00,
2013-05-05 21:00:00,54.3,42.0,29.98,North,0,0.0,0.0,63,0.00,,,0.00,WUHU21623XXSP,2013-05-06 02:00:00,
2013-05-05 21:05:00,54.3,42.0,29.98,North,0,0.0,0.0,63,0.00,,,0.00,WUHU21623XXSP,2013-05-06 02:05:00,
2013-05-05 21:10:00,54.1,41.8,29.98,North,0,0.0,0.0,63,0.00,,,0.00,WUHU21623XXSP,2013-05-06 02:10:00,
2013-05-05 21:15:00,54.0,41.6,29.98,North,0,0.0,0.0,63,0.00,,,0.00,WUHU21623XXSP,2013-05-06 02:15:00,
2013-05-05 21:19:00,53.8,41.8,29.99,North,0,0.0,0.0,64,0.00,,,0.00,WUHU21623XXSP,2013-05-06 02:19:00,
2013-05-05 21:24:00,53.4,41.9,29.99,North,0,0.0,0.0,65,0.00,,,0.00,WUHU21623XXSP,2013-05-06 02:24:00,
2013-05-05 21:29:00,53.4,41.9,29.99,North,0,0.0,0.0,65,0.00,,,0.00,WUHU21623XXSP,2013-05-06 02:29:00,
2013-05-05 21:34:00,53.2,41.7,29.99,North,0,0.0,0.0,65,0.00,,,0.00,WUHU21623XXSP,2013-05-06 02:34:00,
2013-05-05 21:40:00,53.2,42.1,30.00,North,0,0.0,0.0,66,0.00,,,0.00,WUHU21623XXSP,2013-05-06 02:40:00,
2013-05-05 21:45:00,52.9,41.8,30.00,North,0,0.0,0.0,66,0.00,,,0.00,WUHU21623XXSP,2013-05-06 02:45:00,
2013-05-05 21:49:00,52.9,41.8,30.00,North,0,0.0,0.0,66,0.00,,,0.00,WUHU21623XXSP,2013-05-06 02:49:00,
2013-05-05 21:54:00,52.7,41.6,30.00,North,0,0.0,0.0,66,0.00,,,0.00,WUHU21623XXSP,2013-05-06 02:54:00,
2013-05-05 21:59:00,52.5,41.9,30.01,North,0,0.0,0.0,67,0.00,,,0.00,WUHU21623XXSP,2013-05-06 02:59:00,
2013-05-05 22:04:00,52.3,41.7,30.01,North,0,0.0,0.0,67,0.00,,,0.00,WUHU21623XXSP,2013-05-06 03:04:00,
2013-05-05 22:09:00,52.3,41.7,30.01,North,0,0.0,0.0,67,0.00,,,0.00,WUHU21623XXSP,2013-05-06 03:09:00,
2013-05-05 22:14:00,52.0,41.8,30.01,North,0,0.0,0.0,68,0.00,,,0.00,WUHU21623XXSP,2013-05-06 03:14:00,
2013-05-05 22:19:00,52.0,41.8,30.01,North,0,0.0,0.0,68,0.00,,,0.00,WUHU21623XXSP,2013-05-06 03:19:00,
2013-05-05 22:24:00,51.6,41.4,30.01,North,0,0.0,0.0,68,0.00,,,0.00,WUHU21623XXSP,2013-05-06 03:24:00,
2013-05-05 22:29:00,51.6,41.8,30.02,North,0,0.0,0.0,69,0.00,,,0.00,WUHU21623XXSP,2013-05-06 03:29:00,
2013-05-05 22:34:00,51.6,41.8,30.01,North,0,0.0,0.0,69,0.00,,,0.00,WUHU21623XXSP,2013-05-06 03:34:00,
2013-05-05 22:39:00,51.4,41.7,30.02,North,0,0.0,0.0,69,0.00,,,0.00,WUHU21623XXSP,2013-05-06 03:39:00,
2013-05-05 22:44:00,51.3,41.5,30.02,North,0,0.0,0.0,69,0.00,,,0.00,WUHU21623XXSP,2013-05-06 03:44:00,
2013-05-05 22:49:00,51.1,41.3,30.02,North,0,0.0,0.0,69,0.00,,,0.00,WUHU21623XXSP,2013-05-06 03:49:00,
2013-05-05 22:54:00,50.9,41.1,30.02,North,0,0.0,0.0,69,0.00,,,0.00,WUHU21623XXSP,2013-05-06 03:54:00,
2013-05-05 22:59:00,50.7,40.9,30.01,North,0,0.0,0.0,69,0.00,,,0.00,WUHU21623XXSP,2013-05-06 03:59:00,
2013-05-05 23:01:00,50.7,40.9,30.01,North,0,0.0,0.0,69,0.00,,,0.00,WUHU21623XXSP,2013-05-06 04:01:00,
2013-05-05 23:06:00,50.7,41.4,30.01,North,0,0.0,0.0,70,0.00,,,0.00,WUHU21623XXSP,2013-05-06 04:06:00,
2013-05-05 23:11:00,50.5,41.2,30.01,North,0,0.0,0.0,70,0.00,,,0.00,WUHU21623XXSP,2013-05-06 04:11:00,
2013-05-05 23:16:00,50.4,41.0,30.01,North,0,0.0,0.0,70,0.00,,,0.00,WUHU21623XXSP,2013-05-06 04:16:00,
2013-05-05 23:21:00,50.2,41.2,30.01,North,0,0.0,0.0,71,0.00,,,0.00,WUHU21623XXSP,2013-05-06 04:21:00,
2013-05-05 23:26:00,50.2,41.2,30.00,North,0,0.0,0.0,71,0.00,,,0.00,WUHU21623XXSP,2013-05-06 04:26:00,
2013-05-05 23:31:00,49.8,40.8,30.01,North,0,0.0,0.0,71,0.00,,,0.00,WUHU21623XXSP,2013-05-06 04:31:00,
2013-05-05 23:36:00,49.8,41.1,30.00,North,0,0.0,0.0,72,0.00,,,0.00,WUHU21623XXSP,2013-05-06 04:36:00,
2013-05-05 23:41:00,49.6,41.0,30.01,North,0,0.0,0.0,72,0.00,,,0.00,WUHU21623XXSP,2013-05-06 04:41:00,
2013-05-05 23:46:00,49.3,40.9,30.01,North,0,0.0,0.0,73,0.00,,,0.00,WUHU21623XXSP,2013-05-06 04:46:00,
2013-05-05 23:51:00,49.3,40.9,30.01,North,0,0.0,0.0,73,0.00,,,0.00,WUHU21623XXSP,2013-05-06 04:51:00,
2013-05-05 23:56:00,48.9,40.9,30.01,North,0,0.0,0.0,74,0.00,,,0.00,WUHU21623XXSP,2013-05-06 04:56:00,